Home > Products > Valid Products > TAF

000
FTUS41 KRLX 260200 AAA
TAFBKW
TAF AMD
KBKW 260242Z 2603/2624 34004KT P6SM SCT200
     FM260600 06004KT P6SM BKN045
     FM260800 09004KT 3SM -SN BR SCT001 OVC025
     FM261300 33005KT 1/2SM -SN FG VV008
     FM261600 33004KT 1SM -SN BR SCT001 OVC008
     FM261900 31004KT 2SM BR OVC015
     FM262200 31004KT 3SM BR OVC020=



000
FTUS41 KRLX 260200 AAA
TAFCKB
TAF AMD
KCKB 260241Z 2603/2624 VRB03KT P6SM FEW060 SCT200
     FM260800 VRB03KT 5SM -RASN BR OVC060
     FM261000 VRB03KT 1SM -SN BR SCT025 OVC040
     FM261300 VRB04KT 1SM -SN OVC025
     FM261500 VRB04KT 1SM -SN BR OVC015
     FM261700 VRB04KT 1SM -SN BKN008 OVC015
     FM262100 VRB04KT 3SM BR BKN015=



000
FTUS41 KRLX 260200 AAA
TAFEKN
TAF AMD
KEKN 260241Z 2603/2624 VRB03KT P6SM FEW060 SCT200
     FM260700 00000KT 6SM BR BKN060
     FM260900 00000KT 3SM -SN BR OVC040
     FM261100 00000KT 3/4SM -SN BR SCT001 OVC030
     FM261400 VRB03KT 1/2SM -SN FG BKN008
     FM261700 29005KT 1SM -SN BR SCT001 OVC008
     FM262100 31005KT 2SM BR OVC010
     FM262300 29004KT 3SM BR OVC015=



000
FTUS41 KRLX 260200 AAA
TAFPKB
TAF AMD
KPKB 260240Z 2603/2624 31005KT P6SM FEW200
     FM261000 VRB03KT P6SM BKN050
     FM261500 VRB04KT 6SM -SHRASN BKN025=



000
FTUS41 KRLX 260200 AAA
TAFHTS
TAF AMD
KHTS 260240Z 2603/2624 33004KT P6SM FEW050 SCT200
     FM260900 VRB03KT 6SM BR BKN050
     FM261200 02004KT 6SM -SHRASN OVC035
     FM261400 00000KT 5SM -SHRASN BKN025
     FM262100 30004KT 6SM BR BKN035=



000
FTUS41 KRLX 260200 AAA
TAFCRW
TAF AMD
KCRW 260239Z 2603/2624 33004KT P6SM FEW050 SCT200
     FM260700 04004KT 6SM -RA BR OVC045
     FM260900 05004KT 3SM -RASN BR OVC035
     FM261100 00000KT 1SM -RASN BR OVC025
     FM261300 00000KT 1SM -SN BR OVC015
     FM261500 00000KT 3SM -SN BR OVC008
     FM261800 00000KT 6SM -SHRASN OVC012=



000
FTUS41 KRLX 252300 RRA
TAFHTS
TAF
KHTS 252344Z 2600/2624 33004KT P6SM FEW050 SCT200
     FM260900 VRB03KT 6SM BR BKN050
     FM261200 02004KT 6SM -SHRASN OVC035
     FM261500 00000KT 5SM -SHRASN BKN025
     FM262100 30004KT 6SM BR BKN035=



000
FTUS41 KRLX 252300 RRA
TAFBKW
TAF
KBKW 252344Z 2600/2624 34004KT P6SM SCT200
     FM260600 06004KT P6SM BKN045
     FM260800 09004KT 3SM -SN BR SCT001 OVC025
     FM261300 33005KT 1/2SM -SN FG VV008
     FM261600 33004KT 1SM -SN BR SCT001 OVC008
     FM261900 31004KT 2SM BR OVC015
     FM262200 31004KT 3SM BR OVC020=



000
FTUS41 KRLX 252300 RRA
TAFPKB
TAF
KPKB 252344Z 2600/2624 31005KT P6SM FEW200
     FM261000 VRB03KT P6SM BKN050
     FM261500 VRB04KT 6SM -SHRASN BKN025=



000
FTUS41 KRLX 252300 RRA
TAFCRW
TAF
KCRW 252344Z 2600/2624 33004KT P6SM FEW050 SCT200
     FM260700 04004KT 6SM -RA BR OVC045
     FM260900 05004KT 3SM -RASN BR OVC035
     FM261100 00000KT 1SM -RASN BR OVC025
     FM261300 00000KT 1SM -SN BR OVC015
     FM261500 00000KT 3SM -SN BR OVC008
     FM261800 00000KT 6SM -SHRASN OVC012=



000
FTUS41 KRLX 252300 RRA
TAFEKN
TAF
KEKN 252344Z 2600/2624 VRB03KT P6SM FEW060 SCT200
     FM260700 00000KT 6SM BR BKN060
     FM260900 00000KT 3SM -SN BR OVC040
     FM261100 00000KT 3/4SM -SN BR SCT001 OVC030
     FM261400 VRB03KT 1/2SM -SN FG BKN008
     FM261700 29005KT 1SM -SN BR SCT001 OVC008
     FM262100 31005KT 2SM BR OVC010
     FM262300 29004KT 3SM BR OVC015=



000
FTUS41 KRLX 252300 RRA
TAFCKB
TAF
KCKB 252344Z 2600/2624 VRB03KT P6SM FEW060 SCT200
     FM260800 VRB03KT 5SM -RASN BR OVC060
     FM261000 VRB03KT 1SM -SN BR SCT025 OVC040
     FM261200 VRB04KT 1SM -SN OVC025
     FM261400 VRB04KT 1SM -SN BR OVC015
     FM261700 VRB04KT 1SM -SN BKN008 OVC015
     FM262100 VRB04KT 3SM BR BKN015=



000
FTUS41 KRLX 251700
TAFBKW
TAF
KBKW 251740Z 2518/2618 27010G16KT P6SM SCT250
     FM252000 29008KT P6SM SCT250
     FM260800 08004KT 5SM -RASN BR OVC025
     FM261000 06004KT 1SM -SN BR OVC008
     FM261500 33004KT 5SM -SN BR OVC015=



000
FTUS41 KRLX 251700
TAFPKB
TAF
KPKB 251740Z 2518/2618 25010G16KT P6SM SCT035
     FM252000 27008KT P6SM SCT035
     FM260200 33004KT P6SM BKN050
     FM261300 VRB03KT P6SM OVC020=



000
FTUS41 KRLX 251700
TAFEKN
TAF
KEKN 251740Z 2518/2618 27008G16KT P6SM SCT250
     FM252000 28007KT P6SM FEW250
     FM260900 00000KT 4SM -RASN BR OVC030
     FM261000 00000KT 1SM -SN BR OVC008
     FM261700 29005KT 3SM -SN BR OVC012=



000
FTUS41 KRLX 251700
TAFCKB
TAF
KCKB 251740Z 2518/2618 26010G16KT P6SM SCT040
     FM252000 27008KT P6SM SCT040
     FM260600 02004KT P6SM BKN090
     FM260800 VRB03KT 6SM -RA BR OVC050
     FM261000 VRB03KT 3SM -RASN BR OVC025
     FM261200 VRB03KT 2SM -SN BR OVC015=



000
FTUS41 KRLX 251700
TAFHTS
TAF
KHTS 251740Z 2518/2618 25008G16KT P6SM SKC
     FM260900 VRB03KT P6SM OVC050
     FM261300 00000KT P6SM OVC025=



000
FTUS41 KRLX 251700
TAFCRW
TAF
KCRW 251740Z 2518/2618 24009G16KT P6SM FEW050
     FM252000 28007KT P6SM FEW050
     FM260800 04004KT 6SM -RA BR OVC040
     FM260900 05004KT 4SM -RA BR OVC030
     FM261200 00000KT 3SM -RASN BR OVC010
     FM261600 00000KT P6SM OVC020=



000
FTUS41 KRLX 251500 AAA
TAFPKB
TAF AMD
KPKB 251502Z 2515/2612 23008KT P6SM SCT035
     FM251600 24010G16KT P6SM FEW035=



000
FTUS41 KRLX 251500 AAA
TAFEKN
TAF AMD
KEKN 251502Z 2515/2612 25007KT P6SM FEW035
     FM251700 26008G16KT P6SM SCT035
     FM252000 28006KT P6SM BKN035
     FM260900 00000KT 4SM -RA BR OVC050
     FM261100 00000KT 2SM -RASN OVC007=



000
FTUS41 KRLX 251500 AAA
TAFHTS
TAF AMD
KHTS 251502Z 2515/2612 24007KT P6SM SKC
     FM251600 25010G16KT P6SM FEW035=



000
FTUS41 KRLX 251500 AAA
TAFCKB
TAF AMD
KCKB 251502Z 2515/2612 22010G20KT P6SM SKC
     FM251700 25010G20KT P6SM SCT040
     FM252000 26007KT P6SM BKN040=



000
FTUS41 KRLX 251500 AAA
TAFBKW
TAF AMD
KBKW 251502Z 2515/2612 25008KT P6SM SCT250
     FM251700 28008G16KT P6SM FEW250
     FM252000 31007KT P6SM BKN070
     FM260500 18005KT P6SM BKN030
     FM260800 VRB03KT P6SM BKN013
     FM261100 00000KT 3SM -SN BR OVC010=



000
FTUS41 KRLX 251500 AAA
TAFCRW
TAF AMD
KCRW 251502Z 2515/2612 22007KT P6SM FEW120
     FM251600 25008G16KT P6SM SCT100
     FM260900 00000KT 3SM -SNRA BR OVC025=



000
FTUS41 KRLX 251100
TAFHTS
TAF
KHTS 251133Z 2512/2612 20006KT P6SM SCT200
     FM251500 24007KT P6SM SCT200
     FM251800 26006KT P6SM SCT030
     FM260100 31004KT P6SM BKN250=



000
FTUS41 KRLX 251100
TAFPKB
TAF
KPKB 251133Z 2512/2612 21007KT P6SM SCT040
     FM251500 24008KT P6SM SCT040
     FM252300 VRB03KT P6SM SCT040
     FM260200 00000KT P6SM BKN200=



000
FTUS41 KRLX 251100
TAFBKW
TAF
KBKW 251133Z 2512/2612 30004KT P6SM BKN025 OVC035
     FM251800 26008KT P6SM SCT250
     FM252300 31004KT P6SM BKN250
     FM260500 18005KT P6SM BKN030
     FM260800 VRB03KT P6SM BKN013
     FM261100 00000KT 3SM -SN BR OVC010=



000
FTUS41 KRLX 251100
TAFCKB
TAF
KCKB 251133Z 2512/2612 20007KT P6SM BKN040
     FM251400 24006KT P6SM SCT040
     FM251700 24008G20KT P6SM SCT040
     FM252000 24006KT P6SM BKN200
     FM260400 00000KT P6SM BKN070=



000
FTUS41 KRLX 251100
TAFEKN
TAF
KEKN 251133Z 2512/2612 24007KT P6SM SCT035
     FM252300 00000KT P6SM BKN250
     FM260500 00000KT P6SM BKN030
     FM260900 00000KT 4SM -RA BR OVC050
     FM261100 00000KT 2SM -RASN OVC007=



000
FTUS41 KRLX 251100
TAFCRW
TAF
KCRW 251133Z 2512/2612 20006KT P6SM SCT080
     FM251700 24006KT P6SM SCT100
     FM260400 00000KT P6SM BKN200
     FM260900 00000KT 3SM -SNRA BR OVC025=



000
FTUS41 KRLX 250900 AAB
TAFCKB
TAF AMD
KCKB 250923Z 2509/2606 20007KT P6SM BKN040
     FM251400 24006KT P6SM SCT040
     FM251700 24008G20KT P6SM SCT040
     FM252000 24006KT P6SM BKN200
     FM260400 00000KT P6SM BKN070=



000
FTUS41 KRLX 250900 AAA
TAFHTS
TAF AMD
KHTS 250923Z 2509/2606 19004KT P6SM SCT140
     FM251100 00000KT P6SM SCT200
     FM251500 26007KT P6SM SCT200
     FM251800 25006KT P6SM SCT030
     FM260100 31004KT P6SM BKN250=



000
FTUS41 KRLX 250900 AAA
TAFBKW
TAF AMD
KBKW 250923Z 2509/2606 30005KT P6SM BKN025
     FM251100 27004KT P6SM BKN200
     FM251800 26008KT P6SM SCT250
     FM252300 31004KT P6SM BKN250
     FM260500 00000KT P6SM BKN030=



000
FTUS41 KRLX 250900 AAA
TAFPKB
TAF AMD
KPKB 250923Z 2509/2606 22005KT P6SM SCT150
     FM251000 00000KT P6SM BKN040
     FM251500 24008KT P6SM SCT040
     FM252300 VRB03KT P6SM SCT040
     FM260200 00000KT P6SM BKN200=



000
FTUS41 KRLX 250900 AAB
TAFEKN
TAF AMD
KEKN 250923Z 2509/2606 24007G17KT P6SM BKN035
     FM251500 26006KT P6SM SCT040
     FM252300 00000KT P6SM BKN250
     FM260500 00000KT P6SM BKN030=



000
FTUS41 KRLX 250900 AAA
TAFCRW
TAF AMD
KCRW 250923Z 2509/2606 20005KT P6SM SCT140
     FM251200 00000KT P6SM SCT080
     FM251700 24006KT P6SM SCT100
     FM260400 00000KT P6SM BKN200=



000
FTUS41 KRLX 250700 AAA
TAFEKN
TAF AMD
KEKN 250717Z 2507/2606 26007G20KT P6SM SCT120
      TEMPO 2507/2509 BKN035
     FM250900 26008KT P6SM BKN050
     FM251500 26006KT P6SM SCT040
     FM252300 00000KT P6SM BKN250
     FM260500 00000KT P6SM BKN030=



000
FTUS41 KRLX 250500 AAA
TAFCKB
TAF AMD
KCKB 250529Z 2505/2606 29010KT P6SM BKN040
     FM250900 25005KT P6SM BKN040
     FM251400 24006KT P6SM SCT040
     FM251700 24008G20KT P6SM SCT040
     FM252000 24006KT P6SM BKN200
     FM260400 00000KT P6SM BKN070=



000
FTUS41 KRLX 250500
TAFPKB
TAF
KPKB 250527Z 2506/2606 22005KT P6SM SCT150
     FM251000 00000KT P6SM BKN040
     FM251500 24008KT P6SM SCT040
     FM252300 VRB03KT P6SM SCT040
     FM260200 00000KT P6SM BKN200=



000
FTUS41 KRLX 250500
TAFBKW
TAF
KBKW 250527Z 2506/2606 30005KT P6SM BKN060
     FM251100 27004KT P6SM BKN200
     FM251800 26008KT P6SM SCT250
     FM252300 31004KT P6SM BKN250
     FM260500 00000KT P6SM BKN030=



000
FTUS41 KRLX 250500
TAFHTS
TAF
KHTS 250527Z 2506/2606 19004KT P6SM SCT140
     FM251100 00000KT P6SM SCT200
     FM251500 26007KT P6SM SCT200
     FM251800 25006KT P6SM SCT030
     FM260100 31004KT P6SM BKN250=



000
FTUS41 KRLX 250500
TAFEKN
TAF
KEKN 250527Z 2506/2606 29012KT P6SM SCT120
      TEMPO 2506/2509 BKN025
     FM250900 26008KT P6SM BKN050
     FM251500 26006KT P6SM SCT040
     FM252300 00000KT P6SM BKN250
     FM260500 00000KT P6SM BKN030=



000
FTUS41 KRLX 250500
TAFCRW
TAF
KCRW 250527Z 2506/2606 29005KT P6SM SCT140
     FM251200 00000KT P6SM SCT080
     FM251700 24006KT P6SM SCT100
     FM260400 00000KT P6SM BKN200=



000
FTUS41 KRLX 250500
TAFCKB
TAF
KCKB 250527Z 2506/2606 26010G20KT P6SM BKN040
     FM250900 23005KT P6SM BKN040
     FM251400 24006KT P6SM SCT040
     FM251700 24008G20KT P6SM SCT040
     FM252000 24006KT P6SM BKN200
     FM260400 00000KT P6SM BKN070=



000
FTUS41 KRLX 250300 AAA
TAFBKW
TAF AMD
KBKW 250306Z 2503/2524 26011KT P6SM BKN040
     FM250600 28011KT P6SM SCT045
     FM251400 28008G15KT P6SM SCT090=



000
FTUS41 KRLX 250300 AAA
TAFEKN
TAF AMD
KEKN 250306Z 2503/2524 26011G18KT P6SM BKN040
     FM250700 25008KT P6SM BKN040
     FM251400 26008G15KT P6SM SCT040
     FM252200 26008KT P6SM SCT200=



000
FTUS41 KRLX 250300 AAA
TAFCKB
TAF AMD
KCKB 250305Z 2503/2524 26012G26KT P6SM BKN040
     FM250400 26011KT P6SM BKN040
     FM251400 24011G18KT P6SM SCT040
     FM252200 24011KT P6SM SCT200=



000
FTUS41 KRLX 250300 AAA
TAFPKB
TAF AMD
KPKB 250305Z 2503/2524 26009G18KT P6SM SCT040
     FM250700 23007KT P6SM SCT040
     FM251400 25011G18KT P6SM SCT040
     FM252200 25008KT P6SM SCT200=



000
FTUS41 KRLX 250300 AAA
TAFCRW
TAF AMD
KCRW 250304Z 2503/2524 27011G18KT P6SM SCT040
     FM250500 27011KT P6SM SCT040
     FM251300 26008KT P6SM FEW120
     FM251800 27008G14KT P6SM SCT040
     FM252200 28005KT P6SM SCT200=



000
FTUS41 KRLX 250300 AAA
TAFHTS
TAF AMD
KHTS 250304Z 2503/2524 25011KT P6SM SCT040
     FM251100 22004KT P6SM FEW120
     FM251800 25011KT P6SM SCT040
     FM252200 25005KT P6SM SCT200=



000
FTUS41 KRLX 242300
TAFEKN
TAF
KEKN 242320Z 2500/2524 26012G28KT P6SM BKN040
     FM250300 26011G18KT P6SM BKN040
     FM250700 25008KT P6SM BKN040
     FM251400 26008G15KT P6SM SCT040
     FM252200 26008KT P6SM SCT200=



000
FTUS41 KRLX 242300
TAFHTS
TAF
KHTS 242320Z 2500/2524 25011G18KT P6SM SCT045
     FM250300 26011KT P6SM SCT040
     FM251100 22004KT P6SM FEW120
     FM251800 25011KT P6SM SCT040
     FM252200 25005KT P6SM SCT200=



000
FTUS41 KRLX 242300
TAFBKW
TAF
KBKW 242320Z 2500/2524 26014G28KT P6SM BKN035
     FM250300 27011KT P6SM BKN040
     FM250600 28011KT P6SM SCT045
     FM251400 28008G15KT P6SM SCT090=



000
FTUS41 KRLX 242300
TAFCRW
TAF
KCRW 242320Z 2500/2524 26011G24KT P6SM SCT040
     FM250200 26011KT P6SM SCT040
     FM251300 22008KT P6SM FEW120
     FM251800 25008G14KT P6SM SCT040
     FM252200 25005KT P6SM SCT200=



000
FTUS41 KRLX 242300
TAFCKB
TAF
KCKB 242320Z 2500/2524 26012G26KT P6SM BKN040
     FM250400 26011KT P6SM BKN040
     FM251400 24011G18KT P6SM SCT040
     FM252200 24011KT P6SM SCT200=



000
FTUS41 KRLX 242300
TAFPKB
TAF
KPKB 242320Z 2500/2524 24012G24KT P6SM SCT040
     FM250300 25009KT P6SM SCT040
     FM251400 25011G18KT P6SM SCT040
     FM252200 25008KT P6SM SCT200=



000
FTUS41 KRLX 241700 RRA
TAFEKN
TAF
KEKN 241741Z 2418/2518 22018G35KT P6SM SCT070
     FM241900 25016G40KT P6SM BKN070
     FM242000 25014G25KT P6SM BKN080
     FM250300 27010G18KT P6SM BKN050
     FM250600 26008KT P6SM BKN030
     FM251300 26006G12KT P6SM SCT040=



000
FTUS41 KRLX 241700 RRA
TAFCKB
TAF
KCKB 241741Z 2418/2518 23019G40KT P6SM BKN070
     FM242000 24015G25KT P6SM BKN070
     FM250400 24010KT P6SM BKN040
     FM251000 24010KT P6SM BKN030
     FM251300 23006G12KT P6SM SCT030=



000
FTUS41 KRLX 241700 RRA
TAFHTS
TAF
KHTS 241741Z 2418/2518 24018G40KT P6SM BKN060
     FM242000 24014G28KT P6SM BKN060
     FM242200 24010G20KT P6SM SCT050
     FM250200 25008KT P6SM BKN035=



000
FTUS41 KRLX 241700 RRA
TAFBKW
TAF
KBKW 241741Z 2418/2518 23020G40KT P6SM SCT050
     FM242000 24018G30KT P6SM SCT050
     FM242300 26012G25KT P6SM BKN050
     FM250100 28010KT P6SM BKN040
     FM251000 30010KT P6SM SCT030=



000
FTUS41 KRLX 241700 RRA
TAFPKB
TAF
KPKB 241741Z 2418/2518 24018G40KT P6SM BKN045
     FM242000 24012G28KT P6SM BKN060
     FM250000 24010G18KT P6SM BKN035
     FM250600 23008KT P6SM SCT045
     FM251400 24007KT P6SM SCT250
     FM251700 24007G15KT P6SM SCT050=



000
FTUS41 KRLX 241700 RRA
TAFCRW
TAF
KCRW 241741Z 2418/2518 24018G40KT P6SM BKN060
     FM242000 24017G26KT P6SM BKN060
     FM242200 24012G18KT P6SM FEW050
     FM250100 25008KT P6SM SCT035
     FM250400 VRB04KT P6SM BKN035=



000
FTUS41 KRLX 241500 AAB
TAFBKW
TAF AMD
KBKW 241506Z 2415/2512 21012G29KT P6SM SCT050
     FM241800 22019G40KT P6SM SCT150
     FM242100 24014G26KT P6SM SCT150
     FM250000 25007KT P6SM SCT040=



000
FTUS41 KRLX 241500 AAA
TAFHTS
TAF AMD
KHTS 241505Z 2415/2512 20018G31KT P6SM BKN060
     FM241800 22022G40KT P6SM SHRA BKN040
     FM242000 23017G28KT P6SM BKN035
     FM250000 25011KT P6SM SCT040=



000
FTUS41 KRLX 241500 AAA
TAFCKB
TAF AMD
KCKB 241505Z 2415/2512 20018G29KT P6SM SCT100
     FM241800 21022G40KT P6SM VCSH SCT060
     FM242100 22018G32KT P6SM BKN040
     FM242300 23015G24KT P6SM BKN035
     FM250000 25011KT P6SM BKN035=



000
FTUS41 KRLX 241500 AAA
TAFPKB
TAF AMD
KPKB 241505Z 2415/2512 21017G31KT P6SM BKN060
     FM241800 21022G40KT P6SM SHRA BKN040
     FM242000 24016G32KT P6SM BKN035
     FM250000 25010KT P6SM BKN035=



000
FTUS41 KRLX 241500 AAA
TAFBKW
TAF AMD
KBKW 241505Z 2415/2512 22012G23KT P6SM SCT015
     FM241600 19017G29KT P6SM SCT090
     FM241800 22019G40KT P6SM SCT150
     FM242100 24014G26KT P6SM SCT150
     FM250000 25007KT P6SM SCT040=



000
FTUS41 KRLX 241500 AAA
TAFCRW
TAF AMD
KCRW 241505Z 2415/2512 20012G25KT P6SM BKN060
     FM241600 21014G29KT P6SM BKN080
     FM241800 23018G40KT P6SM SHRA BKN080
     FM242000 25014G26KT P6SM SCT080
     FM250000 26009KT P6SM SCT035=



000
FTUS41 KRLX 241500 AAA
TAFEKN
TAF AMD
KEKN 241505Z 2415/2512 20013G21KT P6SM SCT100
     FM241800 21017G40KT P6SM SCT090
     FM242100 26010G23KT P6SM BKN035=



000
FTUS41 KRLX 241100
TAFCKB
TAF
KCKB 241120Z 2412/2512 20012G25KT P6SM SCT040
     FM241600 20018G29KT P6SM SCT100
     FM241800 21022G40KT P6SM SCT060
     FM242000 22018G32KT P6SM BKN040
     FM242300 23015G24KT P6SM BKN035
     FM250400 25011G23KT P6SM BKN035=



000
FTUS41 KRLX 241100
TAFEKN
TAF
KEKN 241120Z 2412/2512 20010KT P6SM SCT030
     FM241400 20013G21KT P6SM SCT100
     FM241700 21017G31KT P6SM SCT090
     FM250400 26010G23KT 4SM HZ BKN026=



000
FTUS41 KRLX 241100
TAFHTS
TAF
KHTS 241120Z 2412/2512 20012KT 6SM BR BKN035 BKN060
     FM241600 20018G31KT P6SM BKN040
     FM241800 22022G40KT P6SM BKN040
     FM242200 23017G28KT P6SM BKN035
     FM250300 25011G24KT P6SM SCT040=



000
FTUS41 KRLX 241100
TAFCRW
TAF
KCRW 241120Z 2412/2512 20012G25KT P6SM BKN040
     FM241500 21014G29KT P6SM BKN080
     FM241800 23018G40KT P6SM BKN080
     FM242300 25014G26KT P6SM SCT080
     FM250300 26009G18KT P6SM SCT035=



000
FTUS41 KRLX 241100
TAFPKB
TAF
KPKB 241120Z 2412/2512 21011G29KT 6SM BR BKN035
     FM241500 19017G31KT P6SM BKN035
     FM241800 21022G40KT P6SM BKN040
     FM242200 24016G32KT P6SM BKN035
     FM250300 25010G22KT P6SM BKN035=



000
FTUS41 KRLX 241100
TAFBKW
TAF
KBKW 241120Z 2412/2512 22012G23KT P6SM SCT015
     FM241600 19017G29KT P6SM SCT090
     FM241900 22019G37KT P6SM SCT150
     FM242300 24014G26KT P6SM SCT150
     FM250300 25007KT P6SM SCT040=



000
FTUS41 KRLX 240700 AAA
TAFCKB
TAF AMD
KCKB 240722Z 2407/2506 19012G23KT 6SM BR SCT040 BKN050 OVC090
     FM241100 19009G15KT P6SM SCT040
     FM241600 20018G29KT P6SM SCT100
     FM241800 21022G40KT P6SM SCT060
     FM242000 22018G32KT P6SM BKN040
     FM242300 23015G24KT P6SM BKN035=



000
FTUS41 KRLX 240700 AAA
TAFHTS
TAF AMD
KHTS 240721Z 2407/2506 20012G22KT 6SM -RA BR BKN035 BKN060
     FM241600 20018G31KT P6SM BKN040
     FM241800 22022G38KT P6SM BKN040
     FM242200 23017G28KT P6SM BKN035=



000
FTUS41 KRLX 240500
TAFHTS
TAF
KHTS 240538Z 2406/2506 16009KT 6SM -RA BR BKN025 BKN060
     FM240800 20011G18KT P6SM SCT025 BKN040
     FM241600 20018G31KT P6SM BKN040
     FM241800 22022G38KT P6SM BKN040
     FM242200 23017G28KT P6SM BKN035=



000
FTUS41 KRLX 240500
TAFBKW
TAF
KBKW 240538Z 2406/2506 16013G20KT P6SM SCT015 BKN035
     FM240800 19012G22KT P6SM SCT015
     FM241600 19017G29KT P6SM SCT090
     FM241900 22019G37KT P6SM SCT150
     FM242300 24014G26KT P6SM SCT150=



000
FTUS41 KRLX 240500
TAFCRW
TAF
KCRW 240538Z 2406/2506 17012KT P6SM BKN040
     FM240900 20010KT P6SM BKN040
     FM241500 21014G28KT P6SM BKN080
     FM241800 23018G37KT P6SM BKN080
     FM242300 25014G26KT P6SM SCT080=



000
FTUS41 KRLX 240500
TAFEKN
TAF
KEKN 240538Z 2406/2506 21009KT 6SM -RA BR BKN035 OVC050
     FM240900 20012G23KT 6SM BR FEW015 BKN035
     FM241200 19010G17KT P6SM SCT030
     FM241400 20013G21KT P6SM SCT100
     FM241700 21017G31KT P6SM SCT090=



000
FTUS41 KRLX 240500
TAFPKB
TAF
KPKB 240538Z 2406/2506 16011G18KT P6SM -RA BKN040 OVC070
     FM240900 19011G18KT 5SM BR BKN030
     FM241200 18011G19KT 6SM BR BKN035
     FM241500 19017G31KT P6SM BKN035
     FM241800 21022G40KT P6SM BKN040
     FM242200 24016G32KT P6SM BKN035=



000
FTUS41 KRLX 240500
TAFCKB
TAF
KCKB 240538Z 2406/2506 15012KT 6SM BR SCT040 BKN050 OVC090
     FM240900 20012G22KT P6SM BKN040
     FM241100 19009G15KT P6SM SCT040
     FM241600 20018G29KT P6SM SCT100
     FM241800 21022G40KT P6SM SCT060
     FM242000 22018G32KT P6SM BKN040
     FM242300 23015G24KT P6SM BKN035=



000
FTUS41 KRLX 240300 AAA
TAFCRW
TAF AMD
KCRW 240302Z 2403/2424 14014G25KT P6SM -SHRA OVC070
     FM240500 17012KT P6SM BKN040
     FM240900 20012KT P6SM BKN040
     FM241500 21014G28KT P6SM BKN080
     FM241800 23018G37KT P6SM BKN080
     FM242300 25014G26KT P6SM SCT080=



000
FTUS41 KRLX 240300 AAA
TAFEKN
TAF AMD
KEKN 240301Z 2403/2424 17016G28KT 6SM -SHRA BR OVC035
     FM240500 17014G22KT 5SM BR BKN025
     FM240700 17013G23KT 4SM BR OVC015
     FM241000 20011G19KT 6SM BR BKN025
     FM241200 19010G17KT P6SM SCT030
     FM241400 20013G21KT P6SM SCT100
     FM241700 21017G31KT P6SM SCT090=



000
FTUS41 KRLX 240300 AAA
TAFCKB
TAF AMD
KCKB 240300Z 2403/2424 14007KT P6SM -SHRA OVC080
     FM240600 16012G22KT P6SM OVC040
     FM240900 20012G22KT P6SM BKN040
     FM241100 19009G15KT P6SM SCT040
     FM241400 19012G19KT P6SM SCT100
     FM241600 20018G29KT P6SM SCT100
     FM241800 21022G40KT P6SM SCT060
     FM242000 22018G32KT P6SM BKN040
     FM242300 23015G24KT P6SM BKN035=



000
FTUS41 KRLX 240200 AAA
TAFPKB
TAF AMD
KPKB 240259Z 2403/2424 14011G18KT P6SM -SHRA OVC060
     FM240600 17011G18KT P6SM OVC040
     FM240900 19011G18KT 5SM BR BKN030
     FM241200 18011G19KT 6SM BR BKN035
     FM241500 19017G31KT P6SM BKN035
     FM241800 21022G40KT P6SM BKN040
     FM242200 24016G32KT P6SM BKN035=



000
FTUS41 KRLX 240200 AAA
TAFHTS
TAF AMD
KHTS 240258Z 2403/2424 14011KT 6SM -SHRA BR OVC035
     FM240500 18011KT 6SM BR BKN025
     FM240900 20011G18KT P6SM SCT025 BKN040
     FM241600 20018G31KT P6SM BKN040
     FM241800 22022G38KT P6SM BKN040
     FM242200 23017G28KT P6SM BKN035=



000
FTUS41 KRLX 240200 AAA
TAFBKW
TAF AMD
KBKW 240256Z 2403/2424 14022G38KT 6SM -SHRA BR SCT010 BKN035
      TEMPO 2403/2405 BKN010
     FM240500 16014G26KT 4SM BR BKN010
     FM240800 19012G22KT P6SM SCT015
     FM241600 19017G29KT P6SM SCT090
     FM241900 22019G37KT P6SM SCT150
     FM242300 24014G26KT P6SM SCT150=



000
FTUS41 KRLX 232300
TAFEKN
TAF
KEKN 232324Z 2400/2424 18016G29KT P6SM -SHRA OVC040
      TEMPO 2400/2402 BKN025
     FM240200 17016G28KT 5SM -SHRA BR OVC025
     FM240700 17013G23KT 4SM BR OVC015
     FM241000 20011G19KT 6SM BR BKN025
     FM241200 19010G17KT P6SM SCT030
     FM241400 20013G21KT P6SM SCT100
     FM241700 21017G31KT P6SM SCT090=



000
FTUS41 KRLX 232300
TAFBKW
TAF
KBKW 232324Z 2400/2424 14021G39KT 6SM -SHRA BR OVC015
     FM240200 14018G34KT 5SM -SHRA BR OVC010
     FM240500 16014G26KT 4SM BR BKN010
     FM240800 19012G22KT P6SM SCT015
     FM241600 19017G29KT P6SM SCT090
     FM241900 22019G37KT P6SM SCT150
     FM242300 24014G26KT P6SM SCT150=



000
FTUS41 KRLX 232300
TAFPKB
TAF
KPKB 232324Z 2400/2424 15011G20KT P6SM -SHRA OVC060
     FM240600 17012G22KT P6SM OVC040
     FM240800 19012G22KT 5SM BR BKN030
     FM241100 18011G19KT 6SM BR BKN035
     FM241600 19017G31KT P6SM BKN035
     FM241800 21022G40KT P6SM BKN040
     FM242200 24016G32KT P6SM BKN035=



000
FTUS41 KRLX 232300
TAFCKB
TAF
KCKB 232324Z 2400/2424 14007KT P6SM -SHRA OVC080
     FM240600 16012G22KT P6SM OVC040
     FM240900 20012G22KT P6SM BKN040
     FM241100 19009G15KT P6SM SCT040
     FM241400 19012G19KT P6SM SCT100
     FM241600 20018G29KT P6SM SCT100
     FM241800 21022G40KT P6SM SCT060
     FM242000 22018G32KT P6SM BKN040
     FM242300 23015G24KT P6SM BKN035=



000
FTUS41 KRLX 232300
TAFHTS
TAF
KHTS 232324Z 2400/2424 14011G18KT 6SM -SHRA BR OVC035
      TEMPO 2400/2402 5SM BR
     FM240500 18013G23KT 6SM BR BKN025
     FM240900 20011G20KT P6SM SCT025 BKN040
     FM241600 20018G31KT P6SM BKN040
     FM241800 22022G38KT P6SM BKN040
     FM242200 23017G28KT P6SM BKN035=



000
FTUS41 KRLX 232300
TAFCRW
TAF
KCRW 232324Z 2400/2424 14014G25KT P6SM -SHRA OVC070
     FM240500 17012KT P6SM BKN040
     FM240900 20012KT P6SM BKN040
     FM241500 21014G28KT P6SM BKN080
     FM241800 23018G37KT P6SM BKN080
     FM242300 25014G26KT P6SM SCT080=



000
FTUS41 KRLX 231700
TAFHTS
TAF
KHTS 231724Z 2318/2418 15007KT P6SM BKN070
     FM232100 15011G16KT 6SM -SHRA BR OVC050
     FM232300 14011G20KT 3SM -RA BR OVC045
     FM240400 16011G20KT 5SM -RA BR BKN020 OVC030
     FM240600 18010G18KT P6SM BKN020
     FM240900 20010KT P6SM SCT020
     FM241100 18011G19KT P6SM BKN035
     FM241600 20018G30KT P6SM BKN040=



000
FTUS41 KRLX 231700
TAFEKN
TAF
KEKN 231724Z 2318/2418 15006KT P6SM SCT150
     FM232200 16011G20KT P6SM BKN150
     FM240200 17016G29KT 3SM -RA BR OVC035
     FM240400 16015G27KT 4SM -RA BR OVC030
     FM240800 19013G18KT P6SM BKN035
     FM241200 19011KT P6SM SCT070
     FM241500 20015G25KT P6SM SCT150=



000
FTUS41 KRLX 231700
TAFBKW
TAF
KBKW 231724Z 2318/2418 16011G20KT P6SM SCT060
     FM232300 14018G32KT 3SM -RA BR OVC015
     FM240500 16014G25KT 6SM -RA BR BKN015
     FM240600 17013G23KT P6SM BKN015
     FM240900 19012G22KT P6SM SCT030
     FM241600 19017G32KT P6SM SCT060=



000
FTUS41 KRLX 231700
TAFCKB
TAF
KCKB 231724Z 2318/2418 14007KT P6SM SCT140
     FM232100 16009G16KT P6SM BKN140
     FM240200 14006KT 6SM -RA BR OVC080
     FM240500 15010G18KT 5SM -RA BR OVC060
     FM240600 16012G22KT P6SM OVC050
     FM240900 20011G18KT P6SM BKN050
     FM241500 19014G25KT P6SM SCT150=



000
FTUS41 KRLX 231700
TAFCRW
TAF
KCRW 231724Z 2318/2418 14011G20KT P6SM BKN080
     FM232300 15012G18KT 5SM -RA BR OVC060
     FM240000 14011G16KT 3SM -RA BR OVC060
     FM240600 18011KT P6SM BKN040
     FM241500 19014G23KT P6SM SCT140
     FM241700 21019G30KT P6SM SCT080=



000
FTUS41 KRLX 231700
TAFPKB
TAF
KPKB 231724Z 2318/2418 14006KT P6SM BKN060
     FM232100 15010G18KT P6SM BKN060
     FM240000 15011G20KT 6SM -RA BR OVC060
     FM240300 15011G20KT 3SM -RA BR OVC025
     FM240600 17011G18KT P6SM OVC030
     FM241100 18011G20KT P6SM BKN035
     FM241600 19017G30KT P6SM BKN040=



000
FTUS41 KRLX 231400 AAA
TAFCKB
TAF AMD
KCKB 231442Z 2315/2412 13006KT P6SM SCT035
     FM240000 15010G17KT P6SM BKN080
     FM240200 14012G20KT 2SM -RA BR OVC080
     FM240600 15012G17KT 5SM -SHRA BR OVC050
     FM240800 19013KT 6SM BR BKN030
     FM240900 20013KT P6SM BKN020
     FM241100 18009KT P6SM BKN150=



000
FTUS41 KRLX 231400 AAA
TAFPKB
TAF AMD
KPKB 231442Z 2315/2412 17005KT P6SM BKN070
     FM240000 15010G17KT 5SM -RA BR OVC060
     FM240300 13010G17KT 2SM -RA BR OVC035
     FM240700 17011KT 6SM BR BKN020
     FM240900 20012KT P6SM BKN010=



000
FTUS41 KRLX 231400 AAA
TAFHTS
TAF AMD
KHTS 231442Z 2315/2412 13007KT P6SM BKN080
     FM232000 15009G17KT P6SM OVC050
     FM232100 15010G18KT 4SM -RA BR OVC050
     FM240600 19014G20KT 6SM BR BKN015
     FM240800 20012KT P6SM BKN015=



000
FTUS41 KRLX 231400 AAA
TAFBKW
TAF AMD
KBKW 231442Z 2315/2412 13007KT P6SM BKN150
     FM231700 15013G18KT P6SM BKN050
     FM231800 15014G25KT P6SM BKN020
     FM232100 14017G31KT 5SM -RA BR OVC020
     FM240000 14019G36KT 2SM -RA BR OVC010
     FM240300 14018G34KT 3SM -RA BR OVC010
     FM240600 17013G18KT 6SM -SHRA BR BKN030
     FM240800 20013KT P6SM BKN035=



000
FTUS41 KRLX 231400 AAA
TAFCRW
TAF AMD
KCRW 231442Z 2315/2412 13007KT P6SM SCT070 BKN100
     FM231800 14011G20KT P6SM BKN070
     FM232300 15014G24KT 3SM -RA BR OVC050
     FM240100 15015G25KT 2SM -RA BR OVC040
     FM240600 17014G20KT 6SM BR BKN040
     FM240800 19013KT P6SM BKN080=



000
FTUS41 KRLX 231400 AAA
TAFEKN
TAF AMD
KEKN 231442Z 2315/2412 17007KT P6SM SCT025
     FM232100 15013G23KT P6SM BKN080
     FM240200 14016G27KT 2SM -RA BR OVC080
     FM240600 15013G18KT 5SM -SHRA BR OVC035
     FM240800 20013KT 6SM BR BKN020
     FM241000 20011G17KT P6SM BKN140=



000
FTUS41 KRLX 231100
TAFEKN
TAF
KEKN 231120Z 2312/2412 20007KT P6SM SCT025
     FM232100 15013G23KT P6SM BKN080
     FM240200 14016G27KT 2SM -RA BR OVC080
     FM240600 15013G18KT 5SM -SHRA BR OVC035
     FM240800 20013KT 6SM BR BKN020
     FM241000 20011G17KT P6SM BKN140=



000
FTUS41 KRLX 231100
TAFCKB
TAF
KCKB 231120Z 2312/2412 16004KT P6SM SCT035
     FM240000 15010G17KT 6SM BR BKN080
     FM240200 14012G20KT 2SM -RA BR OVC080
     FM240600 15012G17KT 5SM -SHRA BR OVC050
     FM240800 19013KT 6SM BR BKN030
     FM240900 20013KT P6SM BKN020
     FM241100 18009KT P6SM BKN150=



000
FTUS41 KRLX 231100
TAFCRW
TAF
KCRW 231120Z 2312/2412 15005KT P6SM SCT070
     FM231900 14011G20KT P6SM BKN070
     FM232300 15014G24KT 3SM -RA BR OVC050
     FM240100 15015G25KT 2SM -RA BR OVC040
     FM240600 17014G20KT 6SM BR BKN040
     FM240800 19013KT P6SM BKN080=



000
FTUS41 KRLX 231100
TAFBKW
TAF
KBKW 231120Z 2312/2412 13007KT P6SM BKN100
     FM231700 15013G18KT P6SM BKN050
     FM231800 15014G25KT P6SM BKN020
     FM232100 14017G31KT 5SM -RA BR OVC020
     FM240000 14019G32KT 2SM -RA BR OVC010
     FM240300 14018G31KT 3SM -RA BR OVC010
     FM240600 17013G18KT 6SM -SHRA BR BKN030
     FM240800 20013KT P6SM BKN035=



000
FTUS41 KRLX 231100
TAFHTS
TAF
KHTS 231120Z 2312/2412 VRB03KT P6SM BKN060
     FM232000 15009G17KT 6SM BR OVC050
     FM232100 15010G18KT 4SM -RA BR OVC050
     FM240600 19014G20KT 6SM BR BKN015
     FM240800 20012KT P6SM BKN015=



000
FTUS41 KRLX 231100
TAFPKB
TAF
KPKB 231120Z 2312/2412 18005KT P6SM BKN035
     FM240000 15010G17KT 5SM -RA BR OVC060
     FM240300 13010G17KT 2SM -RA BR OVC035
     FM240700 17011KT 6SM BR BKN020
     FM240900 20012KT P6SM BKN010=



000
FTUS41 KRLX 230800 AAA
TAFHTS
TAF AMD
KHTS 230857Z 2309/2406 00000KT P6SM OVC100
     FM232000 15009G17KT 6SM BR OVC050
     FM232100 15010G18KT 4SM -RA BR OVC050
     FM232200 15011G19KT 3SM -RA BR OVC050=



000
FTUS41 KRLX 230800 AAA
TAFBKW
TAF AMD
KBKW 230857Z 2309/2406 13007KT P6SM FEW080 OVC100
     FM231800 15014G25KT P6SM BKN020
     FM232100 14017G31KT 5SM -RA BR OVC020
     FM240000 14019G32KT 2SM -RA BR OVC010
     FM240300 14018G31KT 3SM -RA BR BKN010
     FM240500 16015G22KT 6SM BR BKN010=



000
FTUS41 KRLX 230800 AAA
TAFPKB
TAF AMD
KPKB 230857Z 2309/2406 17005KT P6SM SKC
     FM232100 13009G16KT P6SM BKN080
     FM240000 15010G17KT 5SM -RA BR OVC060
     FM240300 13010G17KT 2SM -RA BR BKN035
     FM240500 16011G16KT 3SM -RA BR BKN025=



000
FTUS41 KRLX 230800 AAA
TAFCRW
TAF AMD
KCRW 230857Z 2309/2406 00000KT P6SM BKN090
     FM231900 14011G20KT P6SM BKN070
     FM232300 15014G24KT 3SM -RA BR OVC050
     FM240100 15015G25KT 2SM -RA BR BKN040
     FM240400 16015G25KT 3SM -RA BR BKN040=



000
FTUS41 KRLX 230800 AAA
TAFEKN
TAF AMD
KEKN 230857Z 2309/2406 00000KT P6SM FEW070
     FM232100 15013G23KT P6SM BKN080
     FM240200 14016G27KT 2SM -RA BR BKN080
     FM240500 15014G21KT 3SM -RA BR BKN060=



000
FTUS41 KRLX 230800 AAA
TAFCKB
TAF AMD
KCKB 230857Z 2309/2406 00000KT P6SM SKC
     FM240000 15010G17KT 6SM BR BKN080
     FM240200 14012G20KT 2SM -RA BR BKN080
     FM240500 15012G19KT 3SM -RA BR BKN050=



    US Dept of Commerce
    National Oceanic and Atmospheric Administration
    National Weather Service
    1325 East West Highway
    Silver Spring, MD 20910
    Page Author: NWS Internet Services Team
Disclaimer
Information Quality
Credits
Glossary
Privacy Policy
Freedom of Information Act (FOIA)
About Us
Career Opportunities